createdAt,value
2018-12-02T00:00:31.753Z,5.60
2018-12-02T00:01:35.244Z,5.90
2018-12-02T00:02:38.712Z,4.35
2018-12-02T00:03:42.154Z,4.17
2018-12-02T00:04:45.658Z,3.98
2018-12-02T00:05:49.151Z,4.03
2018-12-02T00:06:52.675Z,3.25
2018-12-02T00:07:56.164Z,3.55
2018-12-02T00:08:59.615Z,3.60
2018-12-02T00:10:04.039Z,3.27
2018-12-02T00:11:07.547Z,2.92
2018-12-02T00:12:11.600Z,3.62
2018-12-02T00:13:15.141Z,3.45
2018-12-02T00:14:18.706Z,3.87
2018-12-02T00:15:26.324Z,3.02
2018-12-02T00:16:29.811Z,3.65
2018-12-02T00:17:33.387Z,3.95
2018-12-02T00:18:36.842Z,4.15
2018-12-02T00:19:40.413Z,4.90
2018-12-02T00:20:43.907Z,5.83
2018-12-02T00:21:47.447Z,4.72
2018-12-02T00:22:50.943Z,4.60
2018-12-02T00:23:54.707Z,4.45
2018-12-02T00:24:58.262Z,4.15
2018-12-02T00:26:01.723Z,3.60
2018-12-02T00:27:05.612Z,3.87
2018-12-02T00:28:11.050Z,3.80
2018-12-02T00:29:14.760Z,4.35
2018-12-02T00:30:22.314Z,4.75
2018-12-02T00:31:25.811Z,3.72
2018-12-02T00:32:29.399Z,4.03
2018-12-02T00:33:32.985Z,3.60
2018-12-02T00:34:36.437Z,3.52
2018-12-02T00:35:40.104Z,3.80
2018-12-02T00:36:43.672Z,2.52
2018-12-02T00:37:49.130Z,3.50
2018-12-02T00:38:52.611Z,3.10
2018-12-02T00:39:56.202Z,3.20
2018-12-02T00:40:59.656Z,3.10
2018-12-02T00:42:03.230Z,4.00
2018-12-02T00:43:08.692Z,4.47
2018-12-02T00:44:12.283Z,4.87
2018-12-02T00:45:17.948Z,4.90
2018-12-02T00:46:21.516Z,5.00
2018-12-02T00:47:25.121Z,3.87
2018-12-02T00:48:28.666Z,4.17
2018-12-02T00:49:32.354Z,3.45
2018-12-02T00:50:35.938Z,3.37
2018-12-02T00:51:39.509Z,3.70
2018-12-02T00:52:43.916Z,3.10
2018-12-02T00:53:47.470Z,2.83
2018-12-02T00:54:51.059Z,2.80
2018-12-02T00:56:01.820Z,3.85
2018-12-02T00:57:05.632Z,4.25
2018-12-02T00:58:09.347Z,4.60
2018-12-02T00:59:12.840Z,3.65
2018-12-02T01:00:16.902Z,3.12
2018-12-02T01:01:20.489Z,3.42
2018-12-02T01:02:24.051Z,3.60
2018-12-02T01:03:28.291Z,2.75
2018-12-02T01:04:31.797Z,3.22
2018-12-02T01:05:35.367Z,3.08
2018-12-02T01:06:38.925Z,2.77
2018-12-02T01:07:42.543Z,2.58
2018-12-02T01:08:46.108Z,2.60
2018-12-02T01:09:49.710Z,2.70
2018-12-02T01:10:53.192Z,3.30
2018-12-02T01:11:56.760Z,3.85
2018-12-02T01:13:00.566Z,5.03
2018-12-02T01:14:04.090Z,3.67
2018-12-02T01:15:10.316Z,3.60
2018-12-02T01:16:13.796Z,3.15
2018-12-02T01:17:17.257Z,3.20
2018-12-02T01:18:20.795Z,2.98
2018-12-02T01:19:30.890Z,3.95
2018-12-02T01:20:34.441Z,3.10
2018-12-02T01:21:37.883Z,3.02
2018-12-02T01:22:41.374Z,2.70
2018-12-02T01:23:44.867Z,3.27
2018-12-02T01:24:48.318Z,2.40
2018-12-02T01:25:51.839Z,2.67
2018-12-02T01:26:55.350Z,2.87
2018-12-02T01:27:58.895Z,4.20
2018-12-02T01:29:02.435Z,5.05
2018-12-02T01:30:12.283Z,4.72
2018-12-02T01:31:15.817Z,5.78
2018-12-02T01:32:19.316Z,6.83
2018-12-02T01:33:22.814Z,5.12
2018-12-02T01:34:26.298Z,4.00
2018-12-02T01:35:29.791Z,3.75
2018-12-02T01:36:33.358Z,3.35
2018-12-02T01:37:36.888Z,3.40
2018-12-02T01:38:40.431Z,2.90
2018-12-02T01:39:43.971Z,3.52
2018-12-02T01:40:48.323Z,2.90
2018-12-02T01:41:51.851Z,2.87
2018-12-02T01:42:55.320Z,3.35
2018-12-02T01:43:58.811Z,4.20
2018-12-02T01:45:02.338Z,4.25
2018-12-02T01:46:05.815Z,5.47
2018-12-02T01:47:09.294Z,6.85
2018-12-02T01:48:12.752Z,4.90
2018-12-02T01:49:16.277Z,4.60
2018-12-02T01:50:20.888Z,3.27
2018-12-02T01:51:24.467Z,3.65
2018-12-02T01:52:28.058Z,2.95
2018-12-02T01:53:31.487Z,7.40
2018-12-02T01:54:35.033Z,6.90
2018-12-02T01:55:38.507Z,5.67
2018-12-02T01:56:42.098Z,3.35
2018-12-02T01:57:45.619Z,3.65
2018-12-02T01:58:49.111Z,4.45
2018-12-02T01:59:52.663Z,6.78
2018-12-02T02:00:56.260Z,4.70
2018-12-02T02:01:59.729Z,6.00
2018-12-02T02:03:03.214Z,4.83
2018-12-02T02:04:06.719Z,4.95
2018-12-02T02:05:10.195Z,4.85
2018-12-02T02:06:13.751Z,4.78
2018-12-02T02:07:17.271Z,6.60
2018-12-02T02:08:20.770Z,7.83
2018-12-02T02:09:24.253Z,6.30
2018-12-02T02:10:28.959Z,7.53
2018-12-02T02:11:32.399Z,4.50
2018-12-02T02:12:35.890Z,4.60
2018-12-02T02:13:39.587Z,4.37
2018-12-02T02:14:43.120Z,5.55
2018-12-02T02:15:46.788Z,10.00
2018-12-02T02:16:50.268Z,9.65
2018-12-02T02:17:53.751Z,11.12
2018-12-02T02:18:57.315Z,8.50
2018-12-02T02:20:00.875Z,5.40
2018-12-02T02:21:04.499Z,4.35
2018-12-02T02:22:07.975Z,4.22
2018-12-02T02:23:11.979Z,7.90
2018-12-02T02:24:15.467Z,6.50
2018-12-02T02:25:19.973Z,7.83
2018-12-02T02:26:23.459Z,11.12
2018-12-02T02:27:27.063Z,14.83
2018-12-02T02:28:30.523Z,14.58
2018-12-02T02:29:34.025Z,11.88
2018-12-02T02:30:37.625Z,9.90
2018-12-02T02:31:41.108Z,5.95
2018-12-02T02:32:44.627Z,4.90
2018-12-02T02:33:48.184Z,4.65
2018-12-02T02:34:51.636Z,3.60
2018-12-02T02:35:55.126Z,4.50
2018-12-02T02:36:58.609Z,4.33
2018-12-02T02:38:02.071Z,5.10
2018-12-02T02:39:08.188Z,4.05
2018-12-02T02:40:15.977Z,4.67
2018-12-02T02:41:19.537Z,6.65
2018-12-02T02:42:23.138Z,10.10
2018-12-02T02:43:26.620Z,9.28
2018-12-02T02:44:30.112Z,8.90
2018-12-02T02:45:33.592Z,8.13
2018-12-02T02:46:37.189Z,6.35
2018-12-02T02:47:40.789Z,5.35
2018-12-02T02:48:44.252Z,5.00
2018-12-02T02:49:47.741Z,6.00
2018-12-02T02:50:51.227Z,6.58
2018-12-02T02:51:56.256Z,6.45
2018-12-02T02:53:02.007Z,8.28
2018-12-02T02:54:06.179Z,7.05
2018-12-02T02:55:09.676Z,7.47
2018-12-02T02:56:13.183Z,8.50
2018-12-02T02:57:16.813Z,8.08
2018-12-02T02:58:20.302Z,8.13
2018-12-02T02:59:23.872Z,8.83
2018-12-02T03:00:28.219Z,10.15
2018-12-02T03:01:32.251Z,19.52
2018-12-02T03:02:35.728Z,21.80
2018-12-02T03:03:39.324Z,21.48
2018-12-02T03:04:42.856Z,23.55
2018-12-02T03:05:46.399Z,25.08
2018-12-02T03:06:49.926Z,24.40
2018-12-02T03:07:53.539Z,24.67
2018-12-02T03:08:57.100Z,19.95
2018-12-02T03:10:00.640Z,19.65
2018-12-02T03:11:04.152Z,19.50
2018-12-02T03:12:07.663Z,15.80
2018-12-02T03:13:11.111Z,16.80
2018-12-02T03:14:14.734Z,14.68
2018-12-02T03:15:19.009Z,13.40
2018-12-02T03:16:22.526Z,14.13
2018-12-02T03:17:26.056Z,12.35
2018-12-02T03:18:29.540Z,12.05
2018-12-02T03:19:33.132Z,9.85
2018-12-02T03:20:36.599Z,10.10
2018-12-02T03:21:40.092Z,7.20
2018-12-02T03:22:44.739Z,4.40
2018-12-02T03:23:48.215Z,3.60
2018-12-02T03:24:51.772Z,3.08
2018-12-02T03:25:55.363Z,2.77
2018-12-02T03:26:58.807Z,2.30
2018-12-02T03:28:02.287Z,2.37
2018-12-02T03:29:06.063Z,2.20
2018-12-02T03:30:15.767Z,2.30
2018-12-02T03:31:19.344Z,2.62
2018-12-02T03:32:22.838Z,2.00
2018-12-02T03:33:26.319Z,2.00
2018-12-02T03:34:29.922Z,2.30
2018-12-02T03:35:33.512Z,2.47
2018-12-02T03:36:37.024Z,2.52
2018-12-02T03:37:40.513Z,3.10
2018-12-02T03:38:43.971Z,2.80
2018-12-02T03:39:47.484Z,2.55
2018-12-02T03:40:51.125Z,4.40
2018-12-02T03:41:54.622Z,4.03
2018-12-02T03:42:58.261Z,7.50
2018-12-02T03:44:01.752Z,7.15
2018-12-02T03:45:06.355Z,10.00
2018-12-02T03:46:09.932Z,24.07
2018-12-02T03:47:13.373Z,23.77
2018-12-02T03:48:16.895Z,17.52
2018-12-02T03:49:21.244Z,17.80
2018-12-02T03:50:25.753Z,14.60
2018-12-02T03:51:29.284Z,16.20
2018-12-02T03:52:32.891Z,14.63
2018-12-02T03:53:36.349Z,15.90
2018-12-02T03:54:39.787Z,13.20
2018-12-02T03:55:43.289Z,11.35
2018-12-02T03:56:47.751Z,7.37
2018-12-02T03:57:51.251Z,6.03
2018-12-02T03:58:54.691Z,4.10
2018-12-02T03:59:58.207Z,3.30
2018-12-02T04:01:01.647Z,3.02
2018-12-02T04:02:05.510Z,3.60
2018-12-02T04:03:09.616Z,3.40
2018-12-02T04:04:13.083Z,2.65
2018-12-02T04:05:18.691Z,3.30
2018-12-02T04:06:22.228Z,3.47
2018-12-02T04:07:26.236Z,2.92
2018-12-02T04:08:29.762Z,2.85
2018-12-02T04:09:33.208Z,3.20
2018-12-02T04:10:37.550Z,3.00
2018-12-02T04:11:41.060Z,2.58
2018-12-02T04:12:45.302Z,3.15
2018-12-02T04:13:48.749Z,2.70
2018-12-02T04:14:52.211Z,3.33
2018-12-02T04:15:55.792Z,2.90
2018-12-02T04:16:59.392Z,2.98
2018-12-02T04:18:02.955Z,3.77
2018-12-02T04:19:06.444Z,3.77
2018-12-02T04:20:11.345Z,3.20
2018-12-02T04:21:14.827Z,3.20
2018-12-02T04:22:18.311Z,4.78
2018-12-02T04:23:21.939Z,5.40
2018-12-02T04:24:25.387Z,4.42
2018-12-02T04:25:28.831Z,4.20
2018-12-02T04:26:32.371Z,3.60
2018-12-02T04:27:35.856Z,4.08
2018-12-02T04:28:39.378Z,3.95
2018-12-02T04:29:42.865Z,4.12
2018-12-02T04:30:46.383Z,4.80
2018-12-02T04:31:49.939Z,5.72
2018-12-02T04:32:54.167Z,4.92
2018-12-02T04:33:57.741Z,4.33
2018-12-02T04:35:01.240Z,4.08
2018-12-02T04:36:04.816Z,2.87
2018-12-02T04:37:08.293Z,3.12
2018-12-02T04:38:11.821Z,3.58
2018-12-02T04:39:15.361Z,3.30
2018-12-02T04:40:18.868Z,4.92
2018-12-02T04:41:22.324Z,4.45
2018-12-02T04:42:25.912Z,4.78
2018-12-02T04:43:29.412Z,5.25
2018-12-02T04:44:32.894Z,5.17
2018-12-02T04:45:36.363Z,5.17
2018-12-02T04:46:39.904Z,4.70
2018-12-02T04:47:43.432Z,5.85
2018-12-02T04:48:46.908Z,4.80
2018-12-02T04:49:50.978Z,5.80
2018-12-02T04:50:54.404Z,4.10
2018-12-02T04:51:57.937Z,4.30
2018-12-02T04:53:01.472Z,3.77
2018-12-02T04:54:04.942Z,4.97
2018-12-02T04:55:09.378Z,3.85
2018-12-02T04:56:12.915Z,3.95
2018-12-02T04:57:16.375Z,3.35
2018-12-02T04:58:19.936Z,3.52
2018-12-02T04:59:23.483Z,3.27
2018-12-02T05:00:26.972Z,3.25
2018-12-02T05:01:30.553Z,5.08
2018-12-02T05:02:34.046Z,4.60
2018-12-02T05:03:37.536Z,4.62
2018-12-02T05:04:41.123Z,3.77
2018-12-02T05:05:44.597Z,3.77
2018-12-02T05:06:48.207Z,3.80
2018-12-02T05:07:52.008Z,4.17
2018-12-02T05:08:55.641Z,3.65
2018-12-02T05:09:59.187Z,3.67
2018-12-02T05:11:02.679Z,4.08
2018-12-02T05:12:06.675Z,3.83
2018-12-02T05:13:10.207Z,3.37
2018-12-02T05:14:13.703Z,3.33
2018-12-02T05:15:18.423Z,3.55
2018-12-02T05:16:21.989Z,3.25
2018-12-02T05:17:25.519Z,2.50
2018-12-02T05:18:29.481Z,3.25
2018-12-02T05:19:32.971Z,3.45
2018-12-02T05:20:36.521Z,2.55
2018-12-02T05:21:40.042Z,3.52
2018-12-02T05:22:43.906Z,4.75
2018-12-02T05:23:47.540Z,4.55
2018-12-02T05:24:51.840Z,4.78
2018-12-02T05:25:55.343Z,4.05
2018-12-02T05:26:58.881Z,3.98
2018-12-02T05:28:02.328Z,3.20
2018-12-02T05:29:06.074Z,3.37
2018-12-02T05:30:15.980Z,2.83
2018-12-02T05:31:19.492Z,3.10
2018-12-02T05:32:22.984Z,3.25
2018-12-02T05:33:26.419Z,2.92
2018-12-02T05:34:29.929Z,3.77
2018-12-02T05:35:33.392Z,3.87
2018-12-02T05:36:36.952Z,2.90
2018-12-02T05:37:40.527Z,2.77
2018-12-02T05:38:44.211Z,3.37
2018-12-02T05:39:47.759Z,3.85
2018-12-02T05:40:51.291Z,3.80
2018-12-02T05:42:00.067Z,3.00
2018-12-02T05:43:03.576Z,3.00
2018-12-02T05:44:07.048Z,2.40
2018-12-02T05:45:14.713Z,3.08
2018-12-02T05:46:18.257Z,3.10
2018-12-02T05:47:21.700Z,2.80
2018-12-02T05:48:25.210Z,2.58
2018-12-02T05:49:28.698Z,1.70
2018-12-02T05:50:32.194Z,3.05
2018-12-02T05:51:35.694Z,2.70
2018-12-02T05:52:39.280Z,3.10
2018-12-02T05:53:42.862Z,2.60
2018-12-02T05:54:46.327Z,2.90
2018-12-02T05:55:49.835Z,3.20
2018-12-02T05:56:53.345Z,3.85
2018-12-02T05:57:56.823Z,3.02
2018-12-02T05:59:00.874Z,2.58
2018-12-02T06:00:05.514Z,3.15
2018-12-02T06:01:09.019Z,2.90
2018-12-02T06:02:12.518Z,2.67
2018-12-02T06:03:16.138Z,2.70
2018-12-02T06:04:19.596Z,2.60
2018-12-02T06:05:23.110Z,2.22
2018-12-02T06:06:26.594Z,2.52
2018-12-02T06:07:30.128Z,2.17
2018-12-02T06:08:33.664Z,2.00
2018-12-02T06:09:37.215Z,2.90
2018-12-02T06:10:40.717Z,2.75
2018-12-02T06:11:44.173Z,2.65
2018-12-02T06:12:47.704Z,2.87
2018-12-02T06:13:51.224Z,2.90
2018-12-02T06:14:54.793Z,2.90
2018-12-02T06:15:58.316Z,2.37
2018-12-02T06:17:01.846Z,3.22
2018-12-02T06:18:05.609Z,2.98
2018-12-02T06:19:09.077Z,2.80
2018-12-02T06:20:18.735Z,2.90
2018-12-02T06:21:22.242Z,2.40
2018-12-02T06:22:25.734Z,2.45
2018-12-02T06:23:32.349Z,3.22
2018-12-02T06:24:35.840Z,2.72
2018-12-02T06:25:39.401Z,2.70
2018-12-02T06:26:43.020Z,2.37
2018-12-02T06:27:46.912Z,2.98
2018-12-02T06:28:50.464Z,2.72
2018-12-02T06:29:53.943Z,2.37
2018-12-02T06:30:57.384Z,2.10
2018-12-02T06:32:00.903Z,2.42
2018-12-02T06:33:05.057Z,2.65
2018-12-02T06:34:08.508Z,2.67
2018-12-02T06:35:13.792Z,2.15
2018-12-02T06:36:17.302Z,2.22
2018-12-02T06:37:20.799Z,2.77
2018-12-02T06:38:24.427Z,2.72
2018-12-02T06:39:27.893Z,1.90
2018-12-02T06:40:31.408Z,2.52
2018-12-02T06:41:34.826Z,2.17
2018-12-02T06:42:38.309Z,2.25
2018-12-02T06:43:41.802Z,2.55
2018-12-02T06:44:45.263Z,2.30
2018-12-02T06:45:48.702Z,1.98
2018-12-02T06:46:52.243Z,2.50
2018-12-02T06:47:55.796Z,2.00
2018-12-02T06:48:59.250Z,2.75
2018-12-02T06:50:02.779Z,2.00
2018-12-02T06:51:06.783Z,2.35
2018-12-02T06:52:10.267Z,1.90
2018-12-02T06:53:13.703Z,2.25
2018-12-02T06:54:17.191Z,1.87
2018-12-02T06:55:34.888Z,2.05
2018-12-02T06:56:41.952Z,2.10
2018-12-02T06:57:49.419Z,1.75
2018-12-02T07:00:03.360Z,2.12
2018-12-02T07:01:28.872Z,2.20
2018-12-02T07:03:12.500Z,1.77
2018-12-02T07:04:28.084Z,2.05
2018-12-02T07:05:37.082Z,1.50
2018-12-02T07:06:40.628Z,1.80
2018-12-02T07:07:44.094Z,2.10
2018-12-02T07:08:47.555Z,2.47
2018-12-02T07:09:51.114Z,1.90
2018-12-02T07:10:54.561Z,2.10
2018-12-02T07:11:58.031Z,2.25
2018-12-02T07:13:01.482Z,2.20
2018-12-02T07:14:05.028Z,1.87
2018-12-02T07:15:08.583Z,1.70
2018-12-02T07:16:12.142Z,1.77
2018-12-02T07:17:15.639Z,1.70
2018-12-02T07:18:23.479Z,1.65
2018-12-02T07:19:37.215Z,2.27
2018-12-02T07:20:43.384Z,2.25
2018-12-02T07:21:51.066Z,2.12
2018-12-02T07:22:57.587Z,2.77
2018-12-02T07:24:05.408Z,4.92
2018-12-02T07:25:11.397Z,5.60
2018-12-02T07:26:18.413Z,5.55
2018-12-02T07:27:21.871Z,4.10
2018-12-02T07:28:25.460Z,3.50
2018-12-02T07:29:29.020Z,3.37
2018-12-02T07:30:32.479Z,4.00
2018-12-02T07:31:35.938Z,2.15
2018-12-02T07:32:39.386Z,2.17
2018-12-02T07:33:42.911Z,2.80
2018-12-02T07:34:46.445Z,2.10
2018-12-02T07:35:49.915Z,2.10
2018-12-02T07:36:54.189Z,2.30
2018-12-02T07:37:59.220Z,1.98
2018-12-02T07:40:13.788Z,2.42
2018-12-02T07:41:17.356Z,2.55
2018-12-02T07:42:20.898Z,2.52
2018-12-02T07:43:24.411Z,2.35
2018-12-02T07:44:27.896Z,2.75
2018-12-02T07:45:31.377Z,2.80
2018-12-02T07:46:34.827Z,2.30
2018-12-02T07:47:38.452Z,2.10
2018-12-02T07:48:41.942Z,2.47
2018-12-02T07:49:45.431Z,1.90
2018-12-02T07:50:48.907Z,2.75
2018-12-02T07:51:52.383Z,1.95
2018-12-02T07:52:55.944Z,2.35
2018-12-02T07:53:59.416Z,1.70
2018-12-02T07:55:03.048Z,2.70
2018-12-02T07:56:06.691Z,2.30
2018-12-02T07:57:12.005Z,2.02
2018-12-02T07:58:16.319Z,2.20
2018-12-02T07:59:20.471Z,2.12
2018-12-02T08:00:24.311Z,1.98
2018-12-02T08:01:28.585Z,1.80
2018-12-02T08:02:33.244Z,2.30
2018-12-02T08:03:37.094Z,2.00
2018-12-02T08:04:40.793Z,1.87
2018-12-02T08:05:44.307Z,1.82
2018-12-02T08:06:47.756Z,2.00
2018-12-02T08:07:51.911Z,1.92
2018-12-02T08:08:55.486Z,2.17
2018-12-02T08:09:59.064Z,2.85
2018-12-02T08:11:02.768Z,2.47
2018-12-02T08:12:06.479Z,2.80
2018-12-02T08:13:09.963Z,1.87
2018-12-02T08:14:13.867Z,2.05
2018-12-02T08:15:19.184Z,1.90
2018-12-02T08:16:22.693Z,1.80
2018-12-02T08:17:26.163Z,2.15
2018-12-02T08:18:29.671Z,2.10
2018-12-02T08:19:33.241Z,2.15
2018-12-02T08:20:36.821Z,2.65
2018-12-02T08:21:40.966Z,2.20
2018-12-02T08:22:45.071Z,2.70
2018-12-02T08:23:48.621Z,2.83
2018-12-02T08:24:52.059Z,2.58
2018-12-02T08:25:55.603Z,2.20
2018-12-02T08:26:59.096Z,2.50
2018-12-02T08:28:02.676Z,2.80
2018-12-02T08:29:06.267Z,2.50
2018-12-02T08:30:11.940Z,2.35
2018-12-02T08:31:15.503Z,2.55
2018-12-02T08:32:19.131Z,2.08
2018-12-02T08:33:22.595Z,2.75
2018-12-02T08:34:26.165Z,2.27
2018-12-02T08:35:29.963Z,2.42
2018-12-02T08:36:33.436Z,2.37
2018-12-02T08:37:36.935Z,2.75
2018-12-02T08:38:40.363Z,2.90
2018-12-02T08:39:43.835Z,2.40
2018-12-02T08:40:47.967Z,2.25
2018-12-02T08:41:51.507Z,2.00
2018-12-02T08:42:54.963Z,2.45
2018-12-02T08:43:58.441Z,2.10
2018-12-02T08:45:01.904Z,2.70
2018-12-02T08:46:05.457Z,2.00
2018-12-02T08:47:09.086Z,1.80
2018-12-02T08:48:12.635Z,1.95
2018-12-02T08:49:16.126Z,2.05
2018-12-02T08:50:20.746Z,2.00
2018-12-02T08:51:24.311Z,1.92
2018-12-02T08:52:27.822Z,2.25
2018-12-02T08:53:31.306Z,2.72
2018-12-02T08:54:34.912Z,2.42
2018-12-02T08:55:38.466Z,2.10
2018-12-02T08:56:41.953Z,2.80
2018-12-02T08:57:45.784Z,2.15
2018-12-02T08:58:49.263Z,2.37
2018-12-02T08:59:52.716Z,2.05
2018-12-02T09:00:56.326Z,2.02
2018-12-02T09:01:59.831Z,1.98
2018-12-02T09:03:05.256Z,1.72
2018-12-02T09:04:08.693Z,1.80
2018-12-02T09:05:13.308Z,2.27
2018-12-02T09:06:16.867Z,2.33
2018-12-02T09:07:20.432Z,2.20
2018-12-02T09:08:24.047Z,1.67
2018-12-02T09:09:28.637Z,4.15
2018-12-02T09:10:32.524Z,3.55
2018-12-02T09:11:36.087Z,3.52
2018-12-02T09:12:39.609Z,4.97
2018-12-02T09:13:43.097Z,7.60
2018-12-02T09:14:46.707Z,7.58
2018-12-02T09:15:50.162Z,7.50
2018-12-02T09:16:53.791Z,6.05
2018-12-02T09:17:57.398Z,4.03
2018-12-02T09:19:00.948Z,4.20
2018-12-02T09:20:08.128Z,2.80
2018-12-02T09:21:11.715Z,1.77
2018-12-02T09:22:15.192Z,1.60
2018-12-02T09:23:18.981Z,2.33
2018-12-02T09:24:23.201Z,2.00
2018-12-02T09:25:27.604Z,1.97
2018-12-02T09:26:31.359Z,1.80
2018-12-02T09:27:35.034Z,2.20
2018-12-02T09:28:39.373Z,1.80
2018-12-02T09:29:43.871Z,2.20
2018-12-02T09:30:47.703Z,2.20
2018-12-02T09:31:53.080Z,2.17
2018-12-02T09:32:56.814Z,2.27
2018-12-02T09:34:01.953Z,2.60
2018-12-02T09:35:06.428Z,2.27
2018-12-02T09:36:11.072Z,2.10
2018-12-02T09:37:14.909Z,2.37
2018-12-02T09:38:18.546Z,2.23
2018-12-02T09:39:22.344Z,1.97
2018-12-02T09:40:25.916Z,2.27
2018-12-02T09:41:29.448Z,2.40
2018-12-02T09:42:33.176Z,2.40
2018-12-02T09:43:37.461Z,2.63
2018-12-02T09:44:42.220Z,2.20
2018-12-02T09:45:45.915Z,2.20
2018-12-02T09:46:49.522Z,2.60
2018-12-02T09:47:53.466Z,2.30
2018-12-02T09:48:56.996Z,2.00
2018-12-02T09:50:00.543Z,1.80
2018-12-02T09:51:04.128Z,2.17
2018-12-02T09:52:08.320Z,1.80
2018-12-02T09:53:12.363Z,1.93
2018-12-02T09:54:17.001Z,2.00
2018-12-02T09:55:23.004Z,2.10
2018-12-02T09:56:27.408Z,2.40
2018-12-02T09:57:30.690Z,3.00
2018-12-02T09:58:35.385Z,3.70
2018-12-02T09:59:39.048Z,4.87
2018-12-02T10:00:43.334Z,2.77
2018-12-02T10:01:47.647Z,3.00
2018-12-02T10:02:51.310Z,2.63
2018-12-02T10:03:54.928Z,2.80
2018-12-02T10:04:58.636Z,2.35
2018-12-02T10:06:03.068Z,10.37
2018-12-02T10:07:07.791Z,42.53
2018-12-02T10:08:11.331Z,11.43
2018-12-02T10:09:15.775Z,14.53
2018-12-02T10:10:22.678Z,2.83
2018-12-02T10:11:24.806Z,3.00
2018-12-02T10:12:28.400Z,2.83
2018-12-02T10:13:32.356Z,2.07
2018-12-02T10:14:37.344Z,2.50
2018-12-02T10:15:42.334Z,2.37
2018-12-02T10:16:46.869Z,1.70
2018-12-02T10:17:51.640Z,2.20
2018-12-02T10:18:55.680Z,1.93
2018-12-02T10:19:59.476Z,1.90
2018-12-02T10:21:03.639Z,2.17
2018-12-02T10:22:07.382Z,2.10
2018-12-02T10:23:11.431Z,1.83
2018-12-02T10:24:15.004Z,2.40
2018-12-02T10:25:20.075Z,2.00
2018-12-02T10:26:23.799Z,2.23
2018-12-02T10:27:27.431Z,2.30
2018-12-02T10:28:31.112Z,1.70
2018-12-02T10:29:34.839Z,2.40
2018-12-02T10:30:40.172Z,2.07
2018-12-02T10:31:43.948Z,3.07
2018-12-02T10:32:48.393Z,1.90
2018-12-02T10:33:51.900Z,2.30
2018-12-02T10:34:55.403Z,2.43
2018-12-02T10:35:58.915Z,2.27
2018-12-02T10:37:02.419Z,1.80
2018-12-02T10:38:07.387Z,1.83
2018-12-02T10:39:11.071Z,1.77
2018-12-02T10:40:15.831Z,2.03
2018-12-02T10:41:20.479Z,1.80
2018-12-02T10:42:24.274Z,1.83
2018-12-02T10:43:28.306Z,1.80
2018-12-02T10:44:31.808Z,1.80
2018-12-02T10:45:35.620Z,1.70
2018-12-02T10:46:43.798Z,2.43
2018-12-02T10:47:42.868Z,5.57
2018-12-02T10:48:46.383Z,4.73
2018-12-02T10:49:49.880Z,3.63
2018-12-02T10:50:53.570Z,2.80
2018-12-02T10:51:57.112Z,1.60
2018-12-02T10:53:03.292Z,1.67
2018-12-02T10:54:10.548Z,1.70
2018-12-02T10:55:19.965Z,1.63
2018-12-02T10:56:23.526Z,1.80
2018-12-02T10:57:27.108Z,1.80
2018-12-02T10:58:32.072Z,1.97
2018-12-02T10:59:35.580Z,1.90
2018-12-02T11:00:44.374Z,1.63
2018-12-02T11:01:52.062Z,3.73
2018-12-02T11:02:55.645Z,5.00
2018-12-02T11:03:59.183Z,2.70
2018-12-02T11:05:02.736Z,2.50
2018-12-02T11:06:06.670Z,16.80
2018-12-02T11:07:10.129Z,5.10
2018-12-02T11:08:13.608Z,2.40
2018-12-02T11:09:17.109Z,1.93
2018-12-02T11:10:20.720Z,1.80
2018-12-02T11:11:25.219Z,1.70
2018-12-02T11:12:28.665Z,1.97
2018-12-02T11:13:32.111Z,2.03
2018-12-02T11:14:35.560Z,2.07
2018-12-02T11:15:39.775Z,1.80
2018-12-02T11:16:43.267Z,1.50
2018-12-02T11:17:47.349Z,1.87
2018-12-02T11:18:50.886Z,2.30
2018-12-02T11:19:54.362Z,1.70
2018-12-02T11:20:57.832Z,2.17
2018-12-02T11:22:01.288Z,2.07
2018-12-02T11:23:05.243Z,1.50
2018-12-02T11:24:08.779Z,1.50
2018-12-02T11:25:13.289Z,1.42
2018-12-02T11:26:16.989Z,2.60
2018-12-02T11:27:20.663Z,1.70
2018-12-02T11:28:24.163Z,1.80
2018-12-02T11:29:27.672Z,1.50
2018-12-02T11:30:31.211Z,2.30
2018-12-02T11:31:34.712Z,1.90
2018-12-02T11:32:38.187Z,1.90
2018-12-02T11:33:41.945Z,2.10
2018-12-02T11:34:45.577Z,1.82
2018-12-02T11:35:49.091Z,2.30
2018-12-02T11:36:53.736Z,1.70
2018-12-02T11:37:57.219Z,1.50
2018-12-02T11:39:01.445Z,1.70
2018-12-02T11:40:07.190Z,1.90
2018-12-02T11:41:10.688Z,1.70
2018-12-02T11:42:14.231Z,1.87
2018-12-02T11:43:17.735Z,1.90
2018-12-02T11:44:21.242Z,1.62
2018-12-02T11:45:24.738Z,2.30
2018-12-02T11:46:28.195Z,2.05
2018-12-02T11:47:31.775Z,1.80
2018-12-02T11:48:35.612Z,2.33
2018-12-02T11:49:39.188Z,2.23
2018-12-02T11:50:42.763Z,17.50
2018-12-02T11:51:46.236Z,6.20
2018-12-02T11:52:49.723Z,5.77
2018-12-02T11:53:54.000Z,16.83
2018-12-02T11:54:57.554Z,4.17
2018-12-02T11:56:01.143Z,2.27
2018-12-02T11:57:04.710Z,2.10
2018-12-02T11:58:08.355Z,2.00
2018-12-02T11:59:12.131Z,1.90
2018-12-02T12:00:29.342Z,1.90
2018-12-02T12:01:32.823Z,2.05
2018-12-02T12:02:36.383Z,1.72
2018-12-02T12:03:39.970Z,2.20
2018-12-02T12:04:43.564Z,2.05
2018-12-02T12:05:47.033Z,1.90
2018-12-02T12:06:50.580Z,1.60
2018-12-02T12:07:54.336Z,2.50
2018-12-02T12:08:57.860Z,1.82
2018-12-02T12:10:01.547Z,2.15
2018-12-02T12:11:06.141Z,1.90
2018-12-02T12:12:09.709Z,2.17
2018-12-02T12:13:13.191Z,2.05
2018-12-02T12:14:16.799Z,1.87
2018-12-02T12:15:21.615Z,1.80
2018-12-02T12:16:25.077Z,1.85
2018-12-02T12:17:28.592Z,2.42
2018-12-02T12:18:32.058Z,2.60
2018-12-02T12:19:35.525Z,2.02
2018-12-02T12:20:42.458Z,2.72
2018-12-02T12:21:46.044Z,1.52
2018-12-02T12:22:49.861Z,1.95
2018-12-02T12:23:53.368Z,2.20
2018-12-02T12:24:56.883Z,1.82
2018-12-02T12:26:00.377Z,1.95
2018-12-02T12:27:03.921Z,2.02
2018-12-02T12:28:08.685Z,2.20
2018-12-02T12:29:12.275Z,2.17
2018-12-02T12:30:20.113Z,1.87
2018-12-02T12:31:23.650Z,1.95
2018-12-02T12:32:27.248Z,1.85
2018-12-02T12:33:30.900Z,2.20
2018-12-02T12:34:34.427Z,2.42
2018-12-02T12:35:40.013Z,2.85
2018-12-02T12:36:43.697Z,2.30
2018-12-02T12:37:47.192Z,1.95
2018-12-02T12:38:50.696Z,2.10
2018-12-02T12:39:54.196Z,1.77
2018-12-02T12:40:57.731Z,1.60
2018-12-02T12:42:01.352Z,1.92
2018-12-02T12:43:17.803Z,1.98
2018-12-02T12:44:21.388Z,1.65
2018-12-02T12:45:24.982Z,2.50
2018-12-02T12:46:28.563Z,3.08
2018-12-02T12:47:32.097Z,2.42
2018-12-02T12:48:35.674Z,6.45
2018-12-02T12:49:39.266Z,5.55
2018-12-02T12:50:42.831Z,2.75
2018-12-02T12:51:46.423Z,2.30
2018-12-02T12:52:49.891Z,2.20
2018-12-02T12:53:53.512Z,1.70
2018-12-02T12:54:57.090Z,2.62
2018-12-02T12:56:00.548Z,2.10
2018-12-02T12:57:04.119Z,3.12
2018-12-02T12:58:08.393Z,36.68
2018-12-02T12:59:11.885Z,5.85
2018-12-02T13:00:18.532Z,32.70
2018-12-02T13:01:21.975Z,32.08
2018-12-02T13:02:25.463Z,10.63
2018-12-02T13:03:28.921Z,7.17
2018-12-02T13:04:32.467Z,3.45
2018-12-02T13:05:35.936Z,2.80
2018-12-02T13:06:39.411Z,2.67
2018-12-02T13:07:42.997Z,3.42
2018-12-02T13:08:49.588Z,2.80
2018-12-02T13:09:53.075Z,3.05
2018-12-02T13:10:56.694Z,2.80
2018-12-02T13:12:00.147Z,3.65
2018-12-02T13:13:03.795Z,3.67
2018-12-02T13:14:07.348Z,3.22
2018-12-02T13:15:15.075Z,4.65
2018-12-02T13:16:18.613Z,4.78
2018-12-02T13:17:22.212Z,4.70
2018-12-02T13:18:25.712Z,3.35
2018-12-02T13:19:29.293Z,3.37
2018-12-02T13:20:36.127Z,2.85
2018-12-02T13:21:39.601Z,2.77
2018-12-02T13:22:43.159Z,2.50
2018-12-02T13:23:49.668Z,2.10
2018-12-02T13:24:53.306Z,2.20
2018-12-02T13:25:56.851Z,1.98
2018-12-02T13:27:00.349Z,2.20
2018-12-02T13:28:04.311Z,1.95
2018-12-02T13:29:08.579Z,2.55
2018-12-02T13:30:14.548Z,1.65
2018-12-02T13:31:18.090Z,1.50
2018-12-02T13:32:21.713Z,12.68
2018-12-02T13:33:25.224Z,7.20
2018-12-02T13:34:28.707Z,6.03
2018-12-02T13:35:32.352Z,2.30
2018-12-02T13:36:35.840Z,3.42
2018-12-02T13:37:39.418Z,1.70
2018-12-02T13:38:43.023Z,1.60
2018-12-02T13:39:46.555Z,1.22
2018-12-02T13:40:50.060Z,1.50
2018-12-02T13:41:53.604Z,1.60
2018-12-02T13:42:59.674Z,1.42
2018-12-02T13:44:03.242Z,1.20
2018-12-02T13:45:11.190Z,1.20
2018-12-02T13:46:14.732Z,1.75
2018-12-02T13:47:18.255Z,1.17
2018-12-02T13:48:21.795Z,1.05
2018-12-02T13:49:25.243Z,1.30
2018-12-02T13:50:28.768Z,1.15
2018-12-02T13:51:32.259Z,1.40
2018-12-02T13:52:35.741Z,1.17
2018-12-02T13:53:44.491Z,1.40
2018-12-02T13:54:48.067Z,1.32
2018-12-02T13:55:51.621Z,1.47
2018-12-02T13:56:55.147Z,1.30
2018-12-02T13:57:59.724Z,1.00
2018-12-02T13:59:03.286Z,1.12
2018-12-02T14:00:16.871Z,1.50
2018-12-02T14:01:20.664Z,1.52
2018-12-02T14:02:24.258Z,1.05
2018-12-02T14:03:27.799Z,1.00
2018-12-02T14:04:31.306Z,1.55
2018-12-02T14:05:35.156Z,1.30
2018-12-02T14:06:38.709Z,1.30
2018-12-02T14:07:42.296Z,1.00
2018-12-02T14:08:45.769Z,1.10
2018-12-02T14:09:49.240Z,1.12
2018-12-02T14:10:52.730Z,1.20
2018-12-02T14:11:56.343Z,0.98
2018-12-02T14:13:02.351Z,1.10